sensor_id;sensor_type;location;lat;lon;timestamp;temperature;humidity
6496;DHT22;3281;47.658;9.166;2022-07-18T00:01:52;17.90;1.00
6496;DHT22;3281;47.658;9.166;2022-07-18T00:04:19;18.00;1.00
6496;DHT22;3281;47.658;9.166;2022-07-18T00:06:46;17.90;1.00
6496;DHT22;3281;47.658;9.166;2022-07-18T00:09:14;17.90;1.00
6496;DHT22;3281;47.658;9.166;2022-07-18T00:11:41;17.80;1.00
6496;DHT22;3281;47.658;9.166;2022-07-18T00:14:08;17.70;1.00
6496;DHT22;3281;47.658;9.166;2022-07-18T00:16:34;17.70;1.00
6496;DHT22;3281;47.658;9.166;2022-07-18T00:19:01;17.80;1.00
6496;DHT22;3281;47.658;9.166;2022-07-18T00:21:28;17.80;1.00
6496;DHT22;3281;47.658;9.166;2022-07-18T00:23:55;17.80;1.00
6496;DHT22;3281;47.658;9.166;2022-07-18T00:26:23;17.90;1.00
6496;DHT22;3281;47.658;9.166;2022-07-18T00:28:50;17.80;1.00
6496;DHT22;3281;47.658;9.166;2022-07-18T00:31:17;17.70;1.00
6496;DHT22;3281;47.658;9.166;2022-07-18T00:33:44;17.70;1.00
6496;DHT22;3281;47.658;9.166;2022-07-18T00:36:11;17.70;1.00
6496;DHT22;3281;47.658;9.166;2022-07-18T00:38:38;17.70;1.00
6496;DHT22;3281;47.658;9.166;2022-07-18T00:41:05;17.70;1.00
6496;DHT22;3281;47.658;9.166;2022-07-18T00:43:34;17.60;1.00
6496;DHT22;3281;47.658;9.166;2022-07-18T00:46:00;17.60;1.00
6496;DHT22;3281;47.658;9.166;2022-07-18T00:48:27;17.70;1.00
6496;DHT22;3281;47.658;9.166;2022-07-18T00:50:54;17.70;1.00
6496;DHT22;3281;47.658;9.166;2022-07-18T00:53:21;17.60;1.00
6496;DHT22;3281;47.658;9.166;2022-07-18T00:55:49;17.60;1.00
6496;DHT22;3281;47.658;9.166;2022-07-18T00:58:16;17.60;1.00
6496;DHT22;3281;47.658;9.166;2022-07-18T01:00:44;17.50;1.00
6496;DHT22;3281;47.658;9.166;2022-07-18T01:03:28;17.50;1.00
6496;DHT22;3281;47.658;9.166;2022-07-18T01:05:55;17.50;1.00
6496;DHT22;3281;47.658;9.166;2022-07-18T01:08:22;17.40;1.00
6496;DHT22;3281;47.658;9.166;2022-07-18T01:10:49;17.40;1.00
6496;DHT22;3281;47.658;9.166;2022-07-18T01:13:17;17.40;1.00
6496;DHT22;3281;47.658;9.166;2022-07-18T01:15:45;17.30;1.00
6496;DHT22;3281;47.658;9.166;2022-07-18T01:18:12;17.30;1.00
6496;DHT22;3281;47.658;9.166;2022-07-18T01:20:40;17.20;1.00
6496;DHT22;3281;47.658;9.166;2022-07-18T01:23:07;17.20;1.00
6496;DHT22;3281;47.658;9.166;2022-07-18T01:25:34;17.20;1.00
6496;DHT22;3281;47.658;9.166;2022-07-18T01:28:00;17.30;1.00
6496;DHT22;3281;47.658;9.166;2022-07-18T01:30:27;17.30;1.00
6496;DHT22;3281;47.658;9.166;2022-07-18T01:32:56;17.30;1.00
6496;DHT22;3281;47.658;9.166;2022-07-18T01:35:23;17.20;1.00
6496;DHT22;3281;47.658;9.166;2022-07-18T01:37:53;17.20;1.00
6496;DHT22;3281;47.658;9.166;2022-07-18T01:40:21;17.10;1.00
6496;DHT22;3281;47.658;9.166;2022-07-18T01:42:48;17.10;1.00
6496;DHT22;3281;47.658;9.166;2022-07-18T01:45:15;17.10;1.00
6496;DHT22;3281;47.658;9.166;2022-07-18T01:47:41;17.10;1.00
6496;DHT22;3281;47.658;9.166;2022-07-18T01:50:09;17.10;1.00
6496;DHT22;3281;47.658;9.166;2022-07-18T01:52:36;17.00;1.00
6496;DHT22;3281;47.658;9.166;2022-07-18T01:55:07;17.00;1.00
6496;DHT22;3281;47.658;9.166;2022-07-18T01:57:35;17.00;1.00
6496;DHT22;3281;47.658;9.166;2022-07-18T02:00:03;16.90;1.00
6496;DHT22;3281;47.658;9.166;2022-07-18T02:02:30;16.90;1.00
6496;DHT22;3281;47.658;9.166;2022-07-18T02:04:56;16.80;1.00
6496;DHT22;3281;47.658;9.166;2022-07-18T02:07:26;16.80;1.00
6496;DHT22;3281;47.658;9.166;2022-07-18T02:09:55;16.80;1.00
6496;DHT22;3281;47.658;9.166;2022-07-18T02:12:24;16.80;1.00
6496;DHT22;3281;47.658;9.166;2022-07-18T02:14:51;16.80;1.00
6496;DHT22;3281;47.658;9.166;2022-07-18T02:17:18;16.80;1.00
6496;DHT22;3281;47.658;9.166;2022-07-18T02:19:45;16.70;1.00
6496;DHT22;3281;47.658;9.166;2022-07-18T02:22:12;16.70;1.00
6496;DHT22;3281;47.658;9.166;2022-07-18T02:24:39;16.70;1.00
6496;DHT22;3281;47.658;9.166;2022-07-18T02:27:06;16.60;1.00
6496;DHT22;3281;47.658;9.166;2022-07-18T02:29:36;16.60;1.00
6496;DHT22;3281;47.658;9.166;2022-07-18T02:32:03;16.60;1.00
6496;DHT22;3281;47.658;9.166;2022-07-18T02:34:30;16.60;1.00
6496;DHT22;3281;47.658;9.166;2022-07-18T02:36:57;16.60;1.00
6496;DHT22;3281;47.658;9.166;2022-07-18T02:39:23;16.60;1.00
6496;DHT22;3281;47.658;9.166;2022-07-18T02:41:50;16.60;1.00
6496;DHT22;3281;47.658;9.166;2022-07-18T02:44:17;16.70;1.00
6496;DHT22;3281;47.658;9.166;2022-07-18T02:46:45;16.70;1.00
6496;DHT22;3281;47.658;9.166;2022-07-18T02:49:12;16.70;1.00
6496;DHT22;3281;47.658;9.166;2022-07-18T02:51:52;16.70;1.00
6496;DHT22;3281;47.658;9.166;2022-07-18T02:54:21;16.70;1.00
6496;DHT22;3281;47.658;9.166;2022-07-18T02:56:47;16.70;1.00
6496;DHT22;3281;47.658;9.166;2022-07-18T02:59:14;16.60;1.00
6496;DHT22;3281;47.658;9.166;2022-07-18T03:01:41;16.50;1.00
6496;DHT22;3281;47.658;9.166;2022-07-18T03:04:09;16.40;1.00
6496;DHT22;3281;47.658;9.166;2022-07-18T03:06:36;16.40;1.00
6496;DHT22;3281;47.658;9.166;2022-07-18T03:09:03;16.30;1.00
6496;DHT22;3281;47.658;9.166;2022-07-18T03:11:30;16.20;1.00
6496;DHT22;3281;47.658;9.166;2022-07-18T03:13:57;16.20;1.00
6496;DHT22;3281;47.658;9.166;2022-07-18T03:16:24;16.20;1.00
6496;DHT22;3281;47.658;9.166;2022-07-18T03:18:51;16.10;1.00
6496;DHT22;3281;47.658;9.166;2022-07-18T03:21:19;16.10;1.00
6496;DHT22;3281;47.658;9.166;2022-07-18T03:23:46;16.20;1.00
6496;DHT22;3281;47.658;9.166;2022-07-18T03:26:12;16.20;1.00
6496;DHT22;3281;47.658;9.166;2022-07-18T03:28:39;16.30;1.00
6496;DHT22;3281;47.658;9.166;2022-07-18T03:31:06;16.30;1.00
6496;DHT22;3281;47.658;9.166;2022-07-18T03:33:33;16.30;1.00
6496;DHT22;3281;47.658;9.166;2022-07-18T03:36:00;16.30;1.00
6496;DHT22;3281;47.658;9.166;2022-07-18T03:38:28;16.30;1.00
6496;DHT22;3281;47.658;9.166;2022-07-18T03:40:55;16.30;1.00
6496;DHT22;3281;47.658;9.166;2022-07-18T03:43:22;16.30;1.00
6496;DHT22;3281;47.658;9.166;2022-07-18T03:45:48;16.30;1.00
6496;DHT22;3281;47.658;9.166;2022-07-18T03:48:15;16.20;1.00
6496;DHT22;3281;47.658;9.166;2022-07-18T03:50:42;16.10;1.00
6496;DHT22;3281;47.658;9.166;2022-07-18T03:53:09;16.10;1.00
6496;DHT22;3281;47.658;9.166;2022-07-18T03:55:37;16.00;1.00
6496;DHT22;3281;47.658;9.166;2022-07-18T03:58:03;16.00;1.00
6496;DHT22;3281;47.658;9.166;2022-07-18T04:00:30;16.00;1.00
6496;DHT22;3281;47.658;9.166;2022-07-18T04:02:57;16.00;1.00
6496;DHT22;3281;47.658;9.166;2022-07-18T04:05:24;16.00;1.00
6496;DHT22;3281;47.658;9.166;2022-07-18T04:07:51;16.10;1.00
6496;DHT22;3281;47.658;9.166;2022-07-18T04:10:17;16.10;1.00
6496;DHT22;3281;47.658;9.166;2022-07-18T04:12:46;16.10;1.00
6496;DHT22;3281;47.658;9.166;2022-07-18T04:15:13;16.00;1.00
6496;DHT22;3281;47.658;9.166;2022-07-18T04:17:40;16.00;1.00
6496;DHT22;3281;47.658;9.166;2022-07-18T04:20:09;16.00;1.00
6496;DHT22;3281;47.658;9.166;2022-07-18T04:22:44;16.10;1.00
6496;DHT22;3281;47.658;9.166;2022-07-18T04:25:12;16.10;1.00
6496;DHT22;3281;47.658;9.166;2022-07-18T04:27:39;16.10;1.00
6496;DHT22;3281;47.658;9.166;2022-07-18T04:30:08;16.30;1.00
6496;DHT22;3281;47.658;9.166;2022-07-18T04:32:35;16.30;1.00
6496;DHT22;3281;47.658;9.166;2022-07-18T04:35:02;16.20;1.00
6496;DHT22;3281;47.658;9.166;2022-07-18T04:37:30;16.30;1.00
6496;DHT22;3281;47.658;9.166;2022-07-18T04:39:57;16.30;1.00
6496;DHT22;3281;47.658;9.166;2022-07-18T04:42:24;16.40;1.00
6496;DHT22;3281;47.658;9.166;2022-07-18T04:44:51;16.50;1.00
6496;DHT22;3281;47.658;9.166;2022-07-18T04:47:19;16.50;1.00
6496;DHT22;3281;47.658;9.166;2022-07-18T04:49:46;16.60;1.00
6496;DHT22;3281;47.658;9.166;2022-07-18T04:52:13;16.70;3.50
6496;DHT22;3281;47.658;9.166;2022-07-18T04:54:39;16.70;1.00
6496;DHT22;3281;47.658;9.166;2022-07-18T04:57:06;16.70;1.00
6496;DHT22;3281;47.658;9.166;2022-07-18T04:59:34;16.70;1.00
6496;DHT22;3281;47.658;9.166;2022-07-18T05:02:01;16.70;1.00
6496;DHT22;3281;47.658;9.166;2022-07-18T05:04:29;16.80;1.00
6496;DHT22;3281;47.658;9.166;2022-07-18T05:06:55;16.80;1.00
6496;DHT22;3281;47.658;9.166;2022-07-18T05:09:22;17.10;1.00
6496;DHT22;3281;47.658;9.166;2022-07-18T05:11:49;16.90;1.00
6496;DHT22;3281;47.658;9.166;2022-07-18T05:14:16;17.00;1.00
6496;DHT22;3281;47.658;9.166;2022-07-18T05:16:42;17.10;1.00
6496;DHT22;3281;47.658;9.166;2022-07-18T05:19:09;17.20;3.80
6496;DHT22;3281;47.658;9.166;2022-07-18T05:21:37;17.20;2.70
6496;DHT22;3281;47.658;9.166;2022-07-18T05:24:05;17.30;3.40
6496;DHT22;3281;47.658;9.166;2022-07-18T05:26:31;17.40;5.60
6496;DHT22;3281;47.658;9.166;2022-07-18T05:28:58;17.50;5.00
6496;DHT22;3281;47.658;9.166;2022-07-18T05:31:25;17.50;1.00
6496;DHT22;3281;47.658;9.166;2022-07-18T05:33:52;17.50;1.00
6496;DHT22;3281;47.658;9.166;2022-07-18T05:36:19;17.60;1.00
6496;DHT22;3281;47.658;9.166;2022-07-18T05:38:47;17.60;1.00
6496;DHT22;3281;47.658;9.166;2022-07-18T05:41:14;17.70;1.00
6496;DHT22;3281;47.658;9.166;2022-07-18T05:43:41;17.70;1.00
6496;DHT22;3281;47.658;9.166;2022-07-18T05:46:08;17.80;1.00
6496;DHT22;3281;47.658;9.166;2022-07-18T05:48:35;17.90;1.00
6496;DHT22;3281;47.658;9.166;2022-07-18T05:51:02;17.90;3.20
6496;DHT22;3281;47.658;9.166;2022-07-18T05:53:29;18.00;1.00
6496;DHT22;3281;47.658;9.166;2022-07-18T05:55:57;18.10;1.00
6496;DHT22;3281;47.658;9.166;2022-07-18T05:58:24;18.20;7.70
6496;DHT22;3281;47.658;9.166;2022-07-18T06:00:51;18.20;1.00
6496;DHT22;3281;47.658;9.166;2022-07-18T06:03:19;18.30;1.00
6496;DHT22;3281;47.658;9.166;2022-07-18T06:05:46;18.40;1.00
6496;DHT22;3281;47.658;9.166;2022-07-18T06:08:13;18.40;1.00
6496;DHT22;3281;47.658;9.166;2022-07-18T06:10:40;18.50;1.00
6496;DHT22;3281;47.658;9.166;2022-07-18T06:13:08;18.60;1.00
6496;DHT22;3281;47.658;9.166;2022-07-18T06:15:35;18.70;1.00
6496;DHT22;3281;47.658;9.166;2022-07-18T06:18:01;18.70;1.00
6496;DHT22;3281;47.658;9.166;2022-07-18T06:20:28;18.80;1.00
6496;DHT22;3281;47.658;9.166;2022-07-18T06:22:55;18.90;1.00
6496;DHT22;3281;47.658;9.166;2022-07-18T06:25:22;18.90;1.00
6496;DHT22;3281;47.658;9.166;2022-07-18T06:27:49;19.00;1.00
6496;DHT22;3281;47.658;9.166;2022-07-18T06:30:17;19.10;1.00
6496;DHT22;3281;47.658;9.166;2022-07-18T06:32:44;19.20;1.00
6496;DHT22;3281;47.658;9.166;2022-07-18T06:35:11;19.20;1.00
6496;DHT22;3281;47.658;9.166;2022-07-18T06:37:37;19.20;1.00
6496;DHT22;3281;47.658;9.166;2022-07-18T06:40:05;19.30;1.00
6496;DHT22;3281;47.658;9.166;2022-07-18T06:42:33;19.30;1.00
6496;DHT22;3281;47.658;9.166;2022-07-18T06:44:59;19.30;1.00
6496;DHT22;3281;47.658;9.166;2022-07-18T06:47:28;19.40;1.00
6496;DHT22;3281;47.658;9.166;2022-07-18T06:49:54;19.50;1.00
6496;DHT22;3281;47.658;9.166;2022-07-18T06:52:21;19.60;1.00
6496;DHT22;3281;47.658;9.166;2022-07-18T06:54:48;19.70;1.00
6496;DHT22;3281;47.658;9.166;2022-07-18T06:57:16;19.70;1.00
6496;DHT22;3281;47.658;9.166;2022-07-18T06:59:45;19.80;1.00
6496;DHT22;3281;47.658;9.166;2022-07-18T07:02:11;19.80;1.00
6496;DHT22;3281;47.658;9.166;2022-07-18T07:04:39;19.90;1.00
6496;DHT22;3281;47.658;9.166;2022-07-18T07:07:06;19.90;1.00
6496;DHT22;3281;47.658;9.166;2022-07-18T07:09:33;19.90;1.00
6496;DHT22;3281;47.658;9.166;2022-07-18T07:12:00;20.00;1.00
6496;DHT22;3281;47.658;9.166;2022-07-18T07:14:27;20.10;1.00
6496;DHT22;3281;47.658;9.166;2022-07-18T07:16:53;20.20;1.00
6496;DHT22;3281;47.658;9.166;2022-07-18T07:19:20;20.30;1.00
6496;DHT22;3281;47.658;9.166;2022-07-18T07:21:48;20.30;1.00
6496;DHT22;3281;47.658;9.166;2022-07-18T07:24:15;20.50;1.00
6496;DHT22;3281;47.658;9.166;2022-07-18T07:26:42;20.60;1.00
6496;DHT22;3281;47.658;9.166;2022-07-18T07:29:08;20.60;1.00
6496;DHT22;3281;47.658;9.166;2022-07-18T07:31:35;20.50;1.00
6496;DHT22;3281;47.658;9.166;2022-07-18T07:34:02;20.60;1.00
6496;DHT22;3281;47.658;9.166;2022-07-18T07:36:29;20.60;1.00
6496;DHT22;3281;47.658;9.166;2022-07-18T07:38:57;20.70;1.00
6496;DHT22;3281;47.658;9.166;2022-07-18T07:41:24;20.80;1.00
6496;DHT22;3281;47.658;9.166;2022-07-18T07:43:51;20.90;1.00
6496;DHT22;3281;47.658;9.166;2022-07-18T07:46:18;20.90;1.00
6496;DHT22;3281;47.658;9.166;2022-07-18T07:48:45;21.00;1.00
6496;DHT22;3281;47.658;9.166;2022-07-18T07:51:13;21.10;1.00
6496;DHT22;3281;47.658;9.166;2022-07-18T07:53:40;21.20;1.00
6496;DHT22;3281;47.658;9.166;2022-07-18T07:56:08;21.20;1.00
6496;DHT22;3281;47.658;9.166;2022-07-18T07:58:36;21.10;1.00
6496;DHT22;3281;47.658;9.166;2022-07-18T08:01:03;21.20;1.00
6496;DHT22;3281;47.658;9.166;2022-07-18T08:03:29;21.20;1.00
6496;DHT22;3281;47.658;9.166;2022-07-18T08:05:56;21.30;1.00
6496;DHT22;3281;47.658;9.166;2022-07-18T08:08:23;21.30;1.00
6496;DHT22;3281;47.658;9.166;2022-07-18T08:10:51;21.40;1.00
6496;DHT22;3281;47.658;9.166;2022-07-18T08:13:20;21.50;1.00
6496;DHT22;3281;47.658;9.166;2022-07-18T08:15:47;21.60;1.00
6496;DHT22;3281;47.658;9.166;2022-07-18T08:18:13;21.70;1.00
6496;DHT22;3281;47.658;9.166;2022-07-18T08:20:40;21.70;1.00
6496;DHT22;3281;47.658;9.166;2022-07-18T08:23:09;21.70;1.00
6496;DHT22;3281;47.658;9.166;2022-07-18T08:25:38;21.80;1.00
6496;DHT22;3281;47.658;9.166;2022-07-18T08:28:06;21.90;1.00
6496;DHT22;3281;47.658;9.166;2022-07-18T08:30:35;22.00;1.00
6496;DHT22;3281;47.658;9.166;2022-07-18T08:33:03;22.10;1.00
6496;DHT22;3281;47.658;9.166;2022-07-18T08:35:31;22.30;1.00
6496;DHT22;3281;47.658;9.166;2022-07-18T08:37:58;22.20;1.00
6496;DHT22;3281;47.658;9.166;2022-07-18T08:40:25;22.30;1.00
6496;DHT22;3281;47.658;9.166;2022-07-18T08:42:53;22.30;1.00
6496;DHT22;3281;47.658;9.166;2022-07-18T08:45:21;22.30;1.00
6496;DHT22;3281;47.658;9.166;2022-07-18T08:47:50;22.30;1.00
6496;DHT22;3281;47.658;9.166;2022-07-18T08:50:17;22.30;1.00
6496;DHT22;3281;47.658;9.166;2022-07-18T08:52:44;22.30;1.00
6496;DHT22;3281;47.658;9.166;2022-07-18T08:55:12;22.40;1.00
6496;DHT22;3281;47.658;9.166;2022-07-18T08:57:39;22.60;1.00
6496;DHT22;3281;47.658;9.166;2022-07-18T09:00:09;22.60;1.00
6496;DHT22;3281;47.658;9.166;2022-07-18T09:02:36;22.60;1.00
6496;DHT22;3281;47.658;9.166;2022-07-18T09:05:05;22.70;1.00
6496;DHT22;3281;47.658;9.166;2022-07-18T09:07:43;22.70;1.00
6496;DHT22;3281;47.658;9.166;2022-07-18T09:10:09;22.80;1.00
6496;DHT22;3281;47.658;9.166;2022-07-18T09:12:36;22.90;1.00
6496;DHT22;3281;47.658;9.166;2022-07-18T09:15:08;23.00;1.00
6496;DHT22;3281;47.658;9.166;2022-07-18T09:17:36;23.10;1.00
6496;DHT22;3281;47.658;9.166;2022-07-18T09:20:06;23.10;1.00
6496;DHT22;3281;47.658;9.166;2022-07-18T09:22:35;23.20;1.00
6496;DHT22;3281;47.658;9.166;2022-07-18T09:25:04;23.30;1.00
6496;DHT22;3281;47.658;9.166;2022-07-18T09:27:34;23.40;1.00
6496;DHT22;3281;47.658;9.166;2022-07-18T09:30:19;23.40;1.00
6496;DHT22;3281;47.658;9.166;2022-07-18T09:32:48;23.40;1.00
6496;DHT22;3281;47.658;9.166;2022-07-18T09:35:18;23.50;1.00
6496;DHT22;3281;47.658;9.166;2022-07-18T09:38:02;23.60;1.00
6496;DHT22;3281;47.658;9.166;2022-07-18T09:40:31;23.60;1.00
6496;DHT22;3281;47.658;9.166;2022-07-18T09:43:00;23.60;1.00
6496;DHT22;3281;47.658;9.166;2022-07-18T09:45:29;23.70;1.00
6496;DHT22;3281;47.658;9.166;2022-07-18T09:47:57;23.70;1.00
6496;DHT22;3281;47.658;9.166;2022-07-18T09:50:32;23.80;1.00
6496;DHT22;3281;47.658;9.166;2022-07-18T09:53:12;23.90;1.00
6496;DHT22;3281;47.658;9.166;2022-07-18T09:55:47;24.10;1.00
6496;DHT22;3281;47.658;9.166;2022-07-18T09:58:16;24.20;1.00
6496;DHT22;3281;47.658;9.166;2022-07-18T10:00:44;24.40;1.00
6496;DHT22;3281;47.658;9.166;2022-07-18T10:03:11;24.60;1.00
6496;DHT22;3281;47.658;9.166;2022-07-18T10:05:41;24.70;1.00
6496;DHT22;3281;47.658;9.166;2022-07-18T10:08:09;24.90;1.00
6496;DHT22;3281;47.658;9.166;2022-07-18T10:10:38;25.00;1.00
6496;DHT22;3281;47.658;9.166;2022-07-18T10:13:06;25.10;1.00
6496;DHT22;3281;47.658;9.166;2022-07-18T10:15:37;25.30;1.00
6496;DHT22;3281;47.658;9.166;2022-07-18T10:18:06;25.40;1.00
6496;DHT22;3281;47.658;9.166;2022-07-18T10:20:35;25.50;1.00
6496;DHT22;3281;47.658;9.166;2022-07-18T10:23:12;25.60;1.00
6496;DHT22;3281;47.658;9.166;2022-07-18T10:25:39;25.70;1.00
6496;DHT22;3281;47.658;9.166;2022-07-18T10:28:09;25.70;1.00
6496;DHT22;3281;47.658;9.166;2022-07-18T10:30:42;25.80;1.00
6496;DHT22;3281;47.658;9.166;2022-07-18T10:33:38;25.90;1.00
6496;DHT22;3281;47.658;9.166;2022-07-18T10:36:07;25.90;1.00
6496;DHT22;3281;47.658;9.166;2022-07-18T10:38:35;25.70;1.00
6496;DHT22;3281;47.658;9.166;2022-07-18T10:41:08;25.80;1.00
6496;DHT22;3281;47.658;9.166;2022-07-18T10:43:40;25.90;1.00
6496;DHT22;3281;47.658;9.166;2022-07-18T10:46:08;26.00;1.00
6496;DHT22;3281;47.658;9.166;2022-07-18T10:48:52;26.00;1.00
6496;DHT22;3281;47.658;9.166;2022-07-18T10:51:27;26.30;1.00
6496;DHT22;3281;47.658;9.166;2022-07-18T10:54:11;26.20;1.00
6496;DHT22;3281;47.658;9.166;2022-07-18T10:57:10;26.30;1.00
6496;DHT22;3281;47.658;9.166;2022-07-18T10:59:39;26.40;1.00
6496;DHT22;3281;47.658;9.166;2022-07-18T11:02:31;26.50;1.00
6496;DHT22;3281;47.658;9.166;2022-07-18T11:04:58;26.40;1.00
6496;DHT22;3281;47.658;9.166;2022-07-18T11:07:25;26.40;1.00
6496;DHT22;3281;47.658;9.166;2022-07-18T11:09:54;26.50;1.00
6496;DHT22;3281;47.658;9.166;2022-07-18T11:12:26;26.60;1.00
6496;DHT22;3281;47.658;9.166;2022-07-18T11:15:06;26.70;1.00
6496;DHT22;3281;47.658;9.166;2022-07-18T11:18:04;26.90;1.00
6496;DHT22;3281;47.658;9.166;2022-07-18T11:20:37;27.10;1.00
6496;DHT22;3281;47.658;9.166;2022-07-18T11:23:12;27.60;1.00
6496;DHT22;3281;47.658;9.166;2022-07-18T11:25:42;28.00;1.00
6496;DHT22;3281;47.658;9.166;2022-07-18T11:28:09;28.30;1.00
6496;DHT22;3281;47.658;9.166;2022-07-18T11:30:37;28.50;1.00
6496;DHT22;3281;47.658;9.166;2022-07-18T11:33:04;28.70;1.00
6496;DHT22;3281;47.658;9.166;2022-07-18T11:35:31;28.40;1.00
6496;DHT22;3281;47.658;9.166;2022-07-18T11:38:03;28.30;1.00
6496;DHT22;3281;47.658;9.166;2022-07-18T11:40:30;27.90;1.00
6496;DHT22;3281;47.658;9.166;2022-07-18T11:42:58;27.50;1.00
6496;DHT22;3281;47.658;9.166;2022-07-18T11:45:25;27.30;1.00
6496;DHT22;3281;47.658;9.166;2022-07-18T11:47:53;27.10;1.00
6496;DHT22;3281;47.658;9.166;2022-07-18T11:50:34;26.80;1.00
6496;DHT22;3281;47.658;9.166;2022-07-18T11:53:01;26.70;1.00
6496;DHT22;3281;47.658;9.166;2022-07-18T11:55:32;26.40;1.00
6496;DHT22;3281;47.658;9.166;2022-07-18T11:58:07;26.30;1.00
6496;DHT22;3281;47.658;9.166;2022-07-18T12:00:34;26.30;1.00
6496;DHT22;3281;47.658;9.166;2022-07-18T12:03:01;26.20;1.00
6496;DHT22;3281;47.658;9.166;2022-07-18T12:05:32;26.20;1.00
6496;DHT22;3281;47.658;9.166;2022-07-18T12:07:59;26.20;1.00
6496;DHT22;3281;47.658;9.166;2022-07-18T12:10:26;26.30;1.00
6496;DHT22;3281;47.658;9.166;2022-07-18T12:12:53;26.30;1.00
6496;DHT22;3281;47.658;9.166;2022-07-18T12:15:22;26.20;1.00
6496;DHT22;3281;47.658;9.166;2022-07-18T12:17:49;26.20;1.00
6496;DHT22;3281;47.658;9.166;2022-07-18T12:20:18;26.20;1.00
6496;DHT22;3281;47.658;9.166;2022-07-18T12:23:04;26.20;1.00
6496;DHT22;3281;47.658;9.166;2022-07-18T12:25:38;26.30;1.00
6496;DHT22;3281;47.658;9.166;2022-07-18T12:28:13;26.20;1.00
6496;DHT22;3281;47.658;9.166;2022-07-18T12:30:42;26.20;1.00
6496;DHT22;3281;47.658;9.166;2022-07-18T12:33:08;26.20;1.00
6496;DHT22;3281;47.658;9.166;2022-07-18T12:35:36;26.20;1.00
6496;DHT22;3281;47.658;9.166;2022-07-18T12:38:05;26.20;1.00
6496;DHT22;3281;47.658;9.166;2022-07-18T12:40:41;26.20;1.00
6496;DHT22;3281;47.658;9.166;2022-07-18T12:43:11;26.30;1.00
6496;DHT22;3281;47.658;9.166;2022-07-18T12:45:38;26.30;1.00
6496;DHT22;3281;47.658;9.166;2022-07-18T12:48:09;26.30;1.00
6496;DHT22;3281;47.658;9.166;2022-07-18T12:50:37;26.40;1.00
6496;DHT22;3281;47.658;9.166;2022-07-18T12:53:05;26.50;1.00
6496;DHT22;3281;47.658;9.166;2022-07-18T12:55:32;26.50;1.00
6496;DHT22;3281;47.658;9.166;2022-07-18T12:57:59;26.50;1.00
6496;DHT22;3281;47.658;9.166;2022-07-18T13:00:27;26.50;1.00
6496;DHT22;3281;47.658;9.166;2022-07-18T13:02:55;26.60;1.00
6496;DHT22;3281;47.658;9.166;2022-07-18T13:05:25;26.70;1.00
6496;DHT22;3281;47.658;9.166;2022-07-18T13:07:52;26.80;1.00
6496;DHT22;3281;47.658;9.166;2022-07-18T13:10:19;26.70;1.00
6496;DHT22;3281;47.658;9.166;2022-07-18T13:12:45;26.70;1.00
6496;DHT22;3281;47.658;9.166;2022-07-18T13:15:12;26.60;1.00
6496;DHT22;3281;47.658;9.166;2022-07-18T13:17:39;26.70;1.00
6496;DHT22;3281;47.658;9.166;2022-07-18T13:20:07;26.70;1.00
6496;DHT22;3281;47.658;9.166;2022-07-18T13:22:35;26.80;1.00
6496;DHT22;3281;47.658;9.166;2022-07-18T13:25:05;26.70;1.00
6496;DHT22;3281;47.658;9.166;2022-07-18T13:27:31;26.80;1.00
6496;DHT22;3281;47.658;9.166;2022-07-18T13:29:58;26.90;1.00
6496;DHT22;3281;47.658;9.166;2022-07-18T13:32:26;26.80;1.00
6496;DHT22;3281;47.658;9.166;2022-07-18T13:34:53;26.80;1.00
6496;DHT22;3281;47.658;9.166;2022-07-18T13:37:19;26.90;1.00
6496;DHT22;3281;47.658;9.166;2022-07-18T13:39:48;27.00;1.00
6496;DHT22;3281;47.658;9.166;2022-07-18T13:42:15;27.00;1.00
6496;DHT22;3281;47.658;9.166;2022-07-18T13:44:42;27.10;1.00
6496;DHT22;3281;47.658;9.166;2022-07-18T13:47:10;27.10;1.00
6496;DHT22;3281;47.658;9.166;2022-07-18T13:49:37;27.10;1.00
6496;DHT22;3281;47.658;9.166;2022-07-18T13:52:04;27.00;1.00
6496;DHT22;3281;47.658;9.166;2022-07-18T13:54:31;27.00;1.00
6496;DHT22;3281;47.658;9.166;2022-07-18T13:56:59;27.00;1.00
6496;DHT22;3281;47.658;9.166;2022-07-18T13:59:26;27.00;1.00
6496;DHT22;3281;47.658;9.166;2022-07-18T14:01:53;26.90;1.00
6496;DHT22;3281;47.658;9.166;2022-07-18T14:04:21;26.90;1.00
6496;DHT22;3281;47.658;9.166;2022-07-18T14:06:48;27.00;1.00
6496;DHT22;3281;47.658;9.166;2022-07-18T14:09:15;27.00;1.00
6496;DHT22;3281;47.658;9.166;2022-07-18T14:11:41;27.10;1.00
6496;DHT22;3281;47.658;9.166;2022-07-18T14:14:09;27.10;1.00
6496;DHT22;3281;47.658;9.166;2022-07-18T14:16:36;27.00;1.00
6496;DHT22;3281;47.658;9.166;2022-07-18T14:19:03;27.00;1.00
6496;DHT22;3281;47.658;9.166;2022-07-18T14:21:30;27.00;1.00
6496;DHT22;3281;47.658;9.166;2022-07-18T14:23:57;27.00;1.00
6496;DHT22;3281;47.658;9.166;2022-07-18T14:26:24;27.10;1.00
6496;DHT22;3281;47.658;9.166;2022-07-18T14:28:52;27.10;1.00
6496;DHT22;3281;47.658;9.166;2022-07-18T14:31:20;27.20;1.00
6496;DHT22;3281;47.658;9.166;2022-07-18T14:33:47;27.30;1.00
6496;DHT22;3281;47.658;9.166;2022-07-18T14:36:14;27.30;1.00
6496;DHT22;3281;47.658;9.166;2022-07-18T14:38:41;27.20;1.00
6496;DHT22;3281;47.658;9.166;2022-07-18T14:41:08;27.10;1.00
6496;DHT22;3281;47.658;9.166;2022-07-18T14:43:34;27.10;1.00
6496;DHT22;3281;47.658;9.166;2022-07-18T14:46:01;27.10;1.00
6496;DHT22;3281;47.658;9.166;2022-07-18T14:48:29;27.10;1.00
6496;DHT22;3281;47.658;9.166;2022-07-18T14:50:56;27.10;1.00
6496;DHT22;3281;47.658;9.166;2022-07-18T14:53:24;27.10;1.00
6496;DHT22;3281;47.658;9.166;2022-07-18T14:55:50;27.10;1.00
6496;DHT22;3281;47.658;9.166;2022-07-18T14:58:17;27.00;1.00
6496;DHT22;3281;47.658;9.166;2022-07-18T15:00:44;27.10;1.00
6496;DHT22;3281;47.658;9.166;2022-07-18T15:03:11;27.10;1.00
6496;DHT22;3281;47.658;9.166;2022-07-18T15:05:39;27.10;1.00
6496;DHT22;3281;47.658;9.166;2022-07-18T15:08:06;27.10;1.00
6496;DHT22;3281;47.658;9.166;2022-07-18T15:10:32;27.00;1.00
6496;DHT22;3281;47.658;9.166;2022-07-18T15:12:59;27.00;1.00
6496;DHT22;3281;47.658;9.166;2022-07-18T15:15:26;27.00;1.00
6496;DHT22;3281;47.658;9.166;2022-07-18T15:17:53;27.00;1.00
6496;DHT22;3281;47.658;9.166;2022-07-18T15:20:20;27.00;1.00
6496;DHT22;3281;47.658;9.166;2022-07-18T15:22:48;26.80;1.00
6496;DHT22;3281;47.658;9.166;2022-07-18T15:25:15;26.90;1.00
6496;DHT22;3281;47.658;9.166;2022-07-18T15:27:41;26.90;1.00
6496;DHT22;3281;47.658;9.166;2022-07-18T15:30:09;27.00;1.00
6496;DHT22;3281;47.658;9.166;2022-07-18T15:32:35;26.90;1.00
6496;DHT22;3281;47.658;9.166;2022-07-18T15:35:03;26.80;1.00
6496;DHT22;3281;47.658;9.166;2022-07-18T15:37:30;26.80;1.00
6496;DHT22;3281;47.658;9.166;2022-07-18T15:39:58;26.80;1.00
6496;DHT22;3281;47.658;9.166;2022-07-18T15:42:25;26.70;1.00
6496;DHT22;3281;47.658;9.166;2022-07-18T15:44:52;26.70;1.00
6496;DHT22;3281;47.658;9.166;2022-07-18T15:47:19;26.70;1.00
6496;DHT22;3281;47.658;9.166;2022-07-18T15:49:45;26.70;1.00
6496;DHT22;3281;47.658;9.166;2022-07-18T15:52:12;26.70;1.00
6496;DHT22;3281;47.658;9.166;2022-07-18T15:54:39;26.70;1.00
6496;DHT22;3281;47.658;9.166;2022-07-18T15:57:07;26.60;1.00
6496;DHT22;3281;47.658;9.166;2022-07-18T15:59:34;26.60;1.00
6496;DHT22;3281;47.658;9.166;2022-07-18T16:02:02;26.70;1.00
6496;DHT22;3281;47.658;9.166;2022-07-18T16:04:30;26.60;1.00
6496;DHT22;3281;47.658;9.166;2022-07-18T16:06:57;26.60;1.00
6496;DHT22;3281;47.658;9.166;2022-07-18T16:09:24;26.70;1.00
6496;DHT22;3281;47.658;9.166;2022-07-18T16:11:51;26.80;1.00
6496;DHT22;3281;47.658;9.166;2022-07-18T16:14:19;26.90;1.00
6496;DHT22;3281;47.658;9.166;2022-07-18T16:16:46;26.90;1.00
6496;DHT22;3281;47.658;9.166;2022-07-18T16:19:12;26.70;1.00
6496;DHT22;3281;47.658;9.166;2022-07-18T16:21:39;26.60;1.00
6496;DHT22;3281;47.658;9.166;2022-07-18T16:24:06;26.60;1.00